createdAt,value
2024-01-08T00:00:59.923Z,65.80
2024-01-08T00:03:30.083Z,66.06
2024-01-08T00:06:00.581Z,65.97
2024-01-08T00:08:29.195Z,65.27
2024-01-08T00:10:57.224Z,65.61
2024-01-08T00:13:25.555Z,65.55
2024-01-08T00:15:53.644Z,65.89
2024-01-08T00:18:22.527Z,66.03
2024-01-08T00:20:50.629Z,65.91
2024-01-08T00:23:18.615Z,65.90
2024-01-08T00:25:46.851Z,65.86
2024-01-08T00:28:14.764Z,65.67
2024-01-08T00:30:42.856Z,65.31
2024-01-08T00:33:12.072Z,64.74
2024-01-08T00:35:40.350Z,65.03
2024-01-08T00:38:08.420Z,65.31
2024-01-08T00:40:36.394Z,64.91
2024-01-08T00:43:04.345Z,65.31
2024-01-08T00:45:33.147Z,65.51
2024-01-08T00:48:04.374Z,65.14
2024-01-08T00:50:32.507Z,65.50
2024-01-08T00:53:00.506Z,65.72
2024-01-08T00:55:29.274Z,65.37
2024-01-08T00:57:58.906Z,65.21
2024-01-08T01:00:26.749Z,65.41
2024-01-08T01:02:56.520Z,65.19
2024-01-08T01:05:25.120Z,65.15
2024-01-08T01:07:53.572Z,64.91
2024-01-08T01:10:23.107Z,65.30
2024-01-08T01:12:51.315Z,64.94
2024-01-08T01:15:19.282Z,64.62
2024-01-08T01:17:47.329Z,65.00
2024-01-08T01:20:15.615Z,64.66
2024-01-08T01:22:43.469Z,64.74
2024-01-08T01:25:12.081Z,64.81
2024-01-08T01:27:40.791Z,65.09
2024-01-08T01:30:10.329Z,65.33
2024-01-08T01:32:38.435Z,65.49
2024-01-08T01:35:07.438Z,65.31
2024-01-08T01:37:35.540Z,65.15
2024-01-08T01:40:04.216Z,65.41
2024-01-08T01:42:32.297Z,64.95
2024-01-08T01:45:00.182Z,64.68
2024-01-08T01:47:29.071Z,64.63
2024-01-08T01:49:57.393Z,64.64
2024-01-08T01:52:27.337Z,64.76
2024-01-08T01:54:57.540Z,64.16
2024-01-08T01:57:26.742Z,64.48
2024-01-08T01:59:55.415Z,64.37
2024-01-08T02:02:25.691Z,64.50
2024-01-08T02:04:54.633Z,64.78
2024-01-08T02:07:22.650Z,64.74
2024-01-08T02:09:52.345Z,64.62
2024-01-08T02:12:21.030Z,64.36
2024-01-08T02:14:49.077Z,64.61
2024-01-08T02:17:18.014Z,64.26
2024-01-08T02:19:45.919Z,63.46
2024-01-08T02:22:13.908Z,64.01
2024-01-08T02:24:42.900Z,63.83
2024-01-08T02:27:11.472Z,64.04
2024-01-08T02:29:39.619Z,64.24
2024-01-08T02:32:09.095Z,63.96
2024-01-08T02:34:39.082Z,64.28
2024-01-08T02:37:07.382Z,64.35
2024-01-08T02:39:37.816Z,64.98
2024-01-08T02:42:06.435Z,64.82
2024-01-08T02:44:34.612Z,64.25
2024-01-08T02:47:04.174Z,64.64
2024-01-08T02:49:32.049Z,64.68
2024-01-08T02:52:00.007Z,65.06
2024-01-08T02:54:27.951Z,64.97
2024-01-08T02:56:56.086Z,64.56
2024-01-08T02:59:23.968Z,64.91
2024-01-08T03:01:52.448Z,64.94
2024-01-08T03:04:20.343Z,64.66
2024-01-08T03:06:48.398Z,64.95
2024-01-08T03:09:16.316Z,64.91
2024-01-08T03:11:44.177Z,65.07
2024-01-08T03:14:12.019Z,65.07
2024-01-08T03:16:39.983Z,65.11
2024-01-08T03:19:07.980Z,64.92
2024-01-08T03:21:35.884Z,65.43
2024-01-08T03:24:04.175Z,65.12
2024-01-08T03:26:32.118Z,65.17
2024-01-08T03:29:00.330Z,65.37
2024-01-08T03:31:28.629Z,65.71
2024-01-08T03:33:56.824Z,65.93
2024-01-08T03:36:25.038Z,66.25
2024-01-08T03:38:52.955Z,66.36
2024-01-08T03:41:21.077Z,66.55
2024-01-08T03:43:49.123Z,66.62
2024-01-08T03:46:17.036Z,66.71
2024-01-08T03:48:45.008Z,66.80
2024-01-08T03:51:13.097Z,66.89
2024-01-08T03:53:41.152Z,67.01
2024-01-08T03:56:09.078Z,67.07
2024-01-08T03:58:38.192Z,67.17
2024-01-08T04:01:06.405Z,67.27
2024-01-08T04:03:34.883Z,67.34
2024-01-08T04:06:03.041Z,67.40
2024-01-08T04:08:31.205Z,67.43
2024-01-08T04:10:59.370Z,67.52
2024-01-08T04:13:27.325Z,67.58
2024-01-08T04:15:55.158Z,67.58
2024-01-08T04:18:23.073Z,67.62
2024-01-08T04:20:51.006Z,67.69
2024-01-08T04:23:19.159Z,67.70
2024-01-08T04:25:47.073Z,67.77
2024-01-08T04:28:15.079Z,67.81
2024-01-08T04:30:43.158Z,67.81
2024-01-08T04:33:10.974Z,67.69
2024-01-08T04:35:38.828Z,67.84
2024-01-08T04:38:07.138Z,67.93
2024-01-08T04:40:35.004Z,67.98
2024-01-08T04:43:03.287Z,68.01
2024-01-08T04:45:31.589Z,68.08
2024-01-08T04:48:00.468Z,68.09
2024-01-08T04:50:28.593Z,68.25
2024-01-08T04:52:56.712Z,68.24
2024-01-08T04:55:24.871Z,68.24
2024-01-08T04:57:52.679Z,68.26
2024-01-08T05:00:20.641Z,68.25
2024-01-08T05:02:48.749Z,68.20
2024-01-08T05:05:17.429Z,67.83
2024-01-08T05:07:45.566Z,67.90
2024-01-08T05:10:13.565Z,67.83
2024-01-08T05:12:41.551Z,67.79
2024-01-08T05:15:10.035Z,67.83
2024-01-08T05:17:38.109Z,68.08
2024-01-08T05:20:07.807Z,68.08
2024-01-08T05:22:35.848Z,67.99
2024-01-08T05:25:03.950Z,67.90
2024-01-08T05:27:32.005Z,68.00
2024-01-08T05:30:00.008Z,68.36
2024-01-08T05:32:28.150Z,68.88
2024-01-08T05:34:56.637Z,68.88
2024-01-08T05:37:24.664Z,68.88
2024-01-08T05:39:52.604Z,69.05
2024-01-08T05:42:20.743Z,69.31
2024-01-08T05:44:48.931Z,69.14
2024-01-08T05:47:16.847Z,69.43
2024-01-08T05:49:44.803Z,69.79
2024-01-08T05:52:12.961Z,69.67
2024-01-08T05:54:40.801Z,69.95
2024-01-08T05:57:08.879Z,69.56
2024-01-08T05:59:38.850Z,69.79
2024-01-08T06:02:06.466Z,69.61
2024-01-08T06:04:34.493Z,69.65
2024-01-08T06:07:02.342Z,69.35
2024-01-08T06:09:30.119Z,69.10
2024-01-08T06:11:59.226Z,69.03
2024-01-08T06:16:55.015Z,68.16
2024-01-08T06:19:22.874Z,68.46
2024-01-08T06:21:50.853Z,68.47
2024-01-08T06:24:18.754Z,68.37
2024-01-08T06:26:46.642Z,68.50
2024-01-08T06:29:14.550Z,68.45
2024-01-08T06:31:42.687Z,68.55
2024-01-08T06:34:10.897Z,68.49
2024-01-08T06:36:41.575Z,68.24
2024-01-08T06:39:12.714Z,68.47
2024-01-08T06:41:40.666Z,67.84
2024-01-08T06:44:08.558Z,68.18
2024-01-08T06:46:36.572Z,68.10
2024-01-08T06:49:04.399Z,68.03
2024-01-08T06:51:35.851Z,68.15
2024-01-08T06:54:04.462Z,68.08
2024-01-08T06:56:32.596Z,68.11
2024-01-08T06:59:04.622Z,68.17
2024-01-08T07:01:32.641Z,68.17
2024-01-08T07:04:00.579Z,68.02
2024-01-08T07:06:28.725Z,67.81
2024-01-08T07:08:56.683Z,67.79
2024-01-08T07:11:25.769Z,67.94
2024-01-08T07:13:54.093Z,67.95
2024-01-08T07:16:22.013Z,67.87
2024-01-08T07:18:50.175Z,68.12
2024-01-08T07:21:19.329Z,68.37
2024-01-08T07:23:48.832Z,68.78
2024-01-08T07:26:17.313Z,68.56
2024-01-08T07:28:46.471Z,68.23
2024-01-08T07:31:16.201Z,68.14
2024-01-08T07:33:44.515Z,67.91
2024-01-08T07:36:14.244Z,67.64
2024-01-08T07:38:42.248Z,67.46
2024-01-08T07:41:10.350Z,67.64
2024-01-08T07:43:39.931Z,67.68
2024-01-08T07:46:08.411Z,67.71
2024-01-08T07:48:36.505Z,67.55
2024-01-08T07:51:05.158Z,67.22
2024-01-08T07:53:33.026Z,67.41
2024-01-08T07:56:01.041Z,67.72
2024-01-08T07:58:36.166Z,67.83
2024-01-08T08:01:00.421Z,67.57
2024-01-08T08:03:28.533Z,67.86
2024-01-08T08:05:58.906Z,67.72
2024-01-08T08:08:27.419Z,67.56
2024-01-08T08:11:05.359Z,66.04
2024-01-08T08:13:39.135Z,67.18
2024-01-08T08:16:29.506Z,65.72
2024-01-08T08:18:57.980Z,64.56
2024-01-08T08:21:26.382Z,65.37
2024-01-08T08:23:58.446Z,63.16
2024-01-08T08:26:26.628Z,63.27
2024-01-08T08:28:54.648Z,62.31
2024-01-08T08:31:22.512Z,62.47
2024-01-08T08:33:53.096Z,62.15
2024-01-08T08:36:20.291Z,62.17
2024-01-08T08:38:48.380Z,62.31
2024-01-08T08:41:18.620Z,62.26
2024-01-08T08:43:48.803Z,60.64
2024-01-08T08:46:24.059Z,60.71
2024-01-08T08:48:51.738Z,60.47
2024-01-08T08:51:21.540Z,59.91
2024-01-08T08:53:49.460Z,59.25
2024-01-08T08:56:17.856Z,59.21
2024-01-08T08:58:47.921Z,59.61
2024-01-08T09:01:15.971Z,59.27
2024-01-08T09:03:44.146Z,59.62
2024-01-08T09:06:12.747Z,59.19
2024-01-08T09:08:45.558Z,59.99
2024-01-08T09:11:13.850Z,60.70
2024-01-08T09:13:42.052Z,61.23
2024-01-08T09:16:14.806Z,61.34
2024-01-08T09:18:44.008Z,61.35
2024-01-08T09:21:15.994Z,61.46
2024-01-08T09:23:44.310Z,60.97
2024-01-08T09:26:13.934Z,61.12
2024-01-08T09:28:41.908Z,60.98
2024-01-08T09:31:11.751Z,60.63
2024-01-08T09:33:42.525Z,60.10
2024-01-08T09:39:05.168Z,58.51
2024-01-08T09:41:45.464Z,58.83
2024-01-08T09:44:16.857Z,59.22
2024-01-08T09:46:52.854Z,59.01
2024-01-08T09:49:21.587Z,58.91
2024-01-08T09:51:49.707Z,58.00
2024-01-08T09:56:59.119Z,58.02
2024-01-08T09:59:29.332Z,58.17
2024-01-08T10:01:58.307Z,58.69
2024-01-08T10:04:26.999Z,57.76
2024-01-08T10:07:11.730Z,57.87
2024-01-08T10:09:42.235Z,57.60
2024-01-08T10:12:11.088Z,57.54
2024-01-08T10:14:48.039Z,57.33
2024-01-08T10:17:25.623Z,57.74
2024-01-08T10:20:07.444Z,57.40
2024-01-08T10:22:35.666Z,56.79
2024-01-08T10:25:04.384Z,56.20
2024-01-08T10:27:32.526Z,56.61
2024-01-08T10:30:00.631Z,55.95
2024-01-08T10:32:28.826Z,56.50
2024-01-08T10:34:57.199Z,56.28
2024-01-08T10:37:29.010Z,55.79
2024-01-08T10:39:59.995Z,56.21
2024-01-08T10:42:28.121Z,55.98
2024-01-08T10:44:55.892Z,56.17
2024-01-08T10:47:29.408Z,55.98
2024-01-08T10:50:01.445Z,56.11
2024-01-08T10:52:35.309Z,55.47
2024-01-08T10:55:06.067Z,55.42
2024-01-08T10:58:04.124Z,55.81
2024-01-08T11:00:35.051Z,55.16
2024-01-08T11:03:03.653Z,56.11
2024-01-08T11:05:37.915Z,56.24
2024-01-08T11:08:09.610Z,56.11
2024-01-08T11:10:38.390Z,55.32
2024-01-08T11:13:06.282Z,55.64
2024-01-08T11:15:34.086Z,55.58
2024-01-08T11:18:03.982Z,55.84
2024-01-08T11:20:45.498Z,55.98
2024-01-08T11:23:41.455Z,55.86
2024-01-08T11:26:23.200Z,56.08
2024-01-08T11:29:06.714Z,56.36
2024-01-08T11:31:42.813Z,56.76
2024-01-08T11:34:42.066Z,56.80
2024-01-08T11:37:20.985Z,56.60
2024-01-08T11:39:50.714Z,57.01
2024-01-08T11:42:20.703Z,56.71
2024-01-08T11:44:49.740Z,56.76
2024-01-08T11:47:18.647Z,56.70
2024-01-08T11:49:46.909Z,56.85
2024-01-08T11:52:16.273Z,57.01
2024-01-08T11:54:46.086Z,56.82
2024-01-08T11:57:14.281Z,56.91
2024-01-08T11:59:42.100Z,56.96
2024-01-08T12:02:18.390Z,57.11
2024-01-08T12:04:59.021Z,57.12
2024-01-08T12:07:31.014Z,56.97
2024-01-08T12:10:06.781Z,57.08
2024-01-08T12:12:40.333Z,56.68
2024-01-08T12:15:09.505Z,56.37
2024-01-08T12:17:41.424Z,56.48
2024-01-08T12:20:12.069Z,56.74
2024-01-08T12:22:40.082Z,57.04
2024-01-08T12:25:11.085Z,57.17
2024-01-08T12:27:41.405Z,57.21
2024-01-08T12:30:10.610Z,57.16
2024-01-08T12:32:39.132Z,57.24
2024-01-08T12:35:16.202Z,57.49
2024-01-08T12:37:44.328Z,57.47
2024-01-08T12:40:13.754Z,57.56
2024-01-08T12:42:45.849Z,57.51
2024-01-08T12:45:13.848Z,57.33
2024-01-08T12:47:47.960Z,57.53
2024-01-08T12:50:16.503Z,57.67
2024-01-08T12:52:47.382Z,57.70
2024-01-08T12:55:15.822Z,57.87
2024-01-08T12:57:45.502Z,57.79
2024-01-08T13:00:14.425Z,57.96
2024-01-08T13:02:42.441Z,58.02
2024-01-08T13:05:14.355Z,58.20
2024-01-08T13:07:40.338Z,58.26
2024-01-08T13:10:08.624Z,58.57
2024-01-08T13:12:38.365Z,58.68
2024-01-08T13:15:07.516Z,58.82
2024-01-08T13:17:35.704Z,58.88
2024-01-08T13:20:18.803Z,58.88
2024-01-08T13:22:40.490Z,58.99
2024-01-08T13:25:10.601Z,58.96
2024-01-08T13:27:38.434Z,58.97
2024-01-08T13:30:08.300Z,59.08
2024-01-08T13:32:37.171Z,59.15
2024-01-08T13:35:11.884Z,58.98
2024-01-08T13:37:38.678Z,59.19
2024-01-08T13:40:08.171Z,59.04
2024-01-08T13:42:38.521Z,59.27
2024-01-08T13:45:09.410Z,59.15
2024-01-08T13:47:37.967Z,59.16
2024-01-08T13:50:07.965Z,59.26
2024-01-08T13:52:36.539Z,59.18
2024-01-08T13:55:05.990Z,59.07
2024-01-08T13:57:33.808Z,58.86
2024-01-08T14:00:04.664Z,58.58
2024-01-08T14:02:36.397Z,58.43
2024-01-08T14:05:04.816Z,58.00
2024-01-08T14:07:33.055Z,57.99
2024-01-08T14:10:00.952Z,57.71
2024-01-08T14:12:28.960Z,57.90
2024-01-08T14:14:57.358Z,57.91
2024-01-08T14:17:25.328Z,58.14
2024-01-08T14:19:53.239Z,58.09
2024-01-08T14:22:21.429Z,58.23
2024-01-08T14:24:50.545Z,58.36
2024-01-08T14:27:18.550Z,58.55
2024-01-08T14:29:48.318Z,58.67
2024-01-08T14:32:18.288Z,58.82
2024-01-08T14:34:45.756Z,58.86
2024-01-08T14:37:14.145Z,59.04
2024-01-08T14:39:42.477Z,59.01
2024-01-08T14:42:10.952Z,58.75
2024-01-08T14:44:39.063Z,58.94
2024-01-08T14:47:07.260Z,58.98
2024-01-08T14:49:35.268Z,59.01
2024-01-08T14:52:04.227Z,59.04
2024-01-08T14:54:32.169Z,58.77
2024-01-08T14:57:01.847Z,59.08
2024-01-08T14:59:29.764Z,59.27
2024-01-08T15:02:00.117Z,59.44
2024-01-08T15:04:27.965Z,59.97
2024-01-08T15:07:00.627Z,60.20
2024-01-08T15:09:28.801Z,60.14
2024-01-08T15:11:58.606Z,59.91
2024-01-08T15:14:26.855Z,59.89
2024-01-08T15:17:02.619Z,59.99
2024-01-08T15:19:31.784Z,60.84
2024-01-08T15:22:08.702Z,60.72
2024-01-08T15:24:37.738Z,60.81
2024-01-08T15:27:06.393Z,60.84
2024-01-08T15:29:34.651Z,61.01
2024-01-08T15:32:05.207Z,61.30
2024-01-08T15:34:36.965Z,60.69
2024-01-08T15:37:07.709Z,60.96
2024-01-08T15:39:35.938Z,61.10
2024-01-08T15:45:29.890Z,61.05
2024-01-08T15:47:58.007Z,61.17
2024-01-08T15:50:26.746Z,61.05
2024-01-08T15:52:58.182Z,61.10
2024-01-08T15:55:26.225Z,61.18
2024-01-08T15:57:56.202Z,61.31
2024-01-08T16:00:24.829Z,61.39
2024-01-08T16:02:54.577Z,61.54
2024-01-08T16:05:31.846Z,61.64
2024-01-08T16:08:03.815Z,61.76
2024-01-08T16:10:37.103Z,61.62
2024-01-08T16:13:04.965Z,61.75
2024-01-08T16:15:33.525Z,61.85
2024-01-08T16:18:01.547Z,61.86
2024-01-08T16:20:34.380Z,61.96
2024-01-08T16:23:05.324Z,62.06
2024-01-08T16:32:10.865Z,62.06
2024-01-08T16:34:45.945Z,62.00
2024-01-08T16:37:13.705Z,62.11
2024-01-08T16:40:04.701Z,62.20
2024-01-08T16:42:33.636Z,62.06
2024-01-08T16:45:09.280Z,61.90
2024-01-08T16:47:48.609Z,61.83
2024-01-08T16:50:12.846Z,61.92
2024-01-08T16:52:41.482Z,62.17
2024-01-08T16:55:10.063Z,62.19
2024-01-08T16:57:39.749Z,62.18
2024-01-08T17:00:11.301Z,62.20
2024-01-08T17:02:41.547Z,61.25
2024-01-08T17:05:17.188Z,62.02
2024-01-08T17:07:45.115Z,62.44
2024-01-08T17:10:15.794Z,62.39
2024-01-08T17:12:43.947Z,61.83
2024-01-08T17:15:12.932Z,61.52
2024-01-08T17:17:42.101Z,61.90
2024-01-08T17:20:13.853Z,61.99
2024-01-08T17:22:42.017Z,62.49
2024-01-08T17:25:10.050Z,62.16
2024-01-08T17:27:38.116Z,62.31
2024-01-08T17:30:09.154Z,62.35
2024-01-08T17:32:38.943Z,61.94
2024-01-08T17:35:08.769Z,62.32
2024-01-08T17:37:36.754Z,62.48
2024-01-08T17:40:06.340Z,62.59
2024-01-08T17:42:36.246Z,62.65
2024-01-08T17:45:05.772Z,62.66
2024-01-08T17:47:37.167Z,62.73
2024-01-08T17:50:07.460Z,62.93
2024-01-08T17:52:35.530Z,62.91
2024-01-08T17:55:04.232Z,62.98
2024-01-08T17:57:33.115Z,63.03
2024-01-08T18:00:05.390Z,63.15
2024-01-08T18:02:36.401Z,63.27
2024-01-08T18:05:05.796Z,63.45
2024-01-08T18:07:34.047Z,63.47
2024-01-08T18:10:01.994Z,63.55
2024-01-08T18:12:30.286Z,63.68
2024-01-08T18:14:58.673Z,63.79
2024-01-08T18:17:26.946Z,63.97
2024-01-08T18:19:54.845Z,63.98
2024-01-08T18:22:22.890Z,64.22
2024-01-08T18:24:50.871Z,64.24
2024-01-08T18:27:18.821Z,64.31
2024-01-08T18:29:47.250Z,64.32
2024-01-08T18:32:15.953Z,64.56
2024-01-08T18:34:45.327Z,64.69
2024-01-08T18:37:13.266Z,64.68
2024-01-08T18:39:41.891Z,64.59
2024-01-08T18:42:13.008Z,64.71
2024-01-08T18:44:42.346Z,64.74
2024-01-08T18:47:10.466Z,64.57
2024-01-08T18:49:48.256Z,64.57
2024-01-08T18:52:16.210Z,64.61
2024-01-08T18:54:44.151Z,64.85
2024-01-08T18:57:12.446Z,64.98
2024-01-08T18:59:41.577Z,65.02
2024-01-08T19:02:10.321Z,64.53
2024-01-08T19:04:38.817Z,62.73
2024-01-08T19:07:07.388Z,61.38
2024-01-08T19:09:36.916Z,61.29
2024-01-08T19:12:07.737Z,62.19
2024-01-08T19:14:35.769Z,61.00
2024-01-08T19:17:04.129Z,60.74
2024-01-08T19:19:33.994Z,60.38
2024-01-08T19:22:05.021Z,59.90
2024-01-08T19:24:34.939Z,60.29
2024-01-08T19:27:06.034Z,59.19
2024-01-08T19:29:34.242Z,58.77
2024-01-08T19:32:02.718Z,59.71
2024-01-08T19:34:30.598Z,59.57
2024-01-08T19:36:59.036Z,60.06
2024-01-08T19:39:27.491Z,60.54
2024-01-08T19:41:59.125Z,60.75
2024-01-08T19:44:27.153Z,60.96
2024-01-08T19:46:56.890Z,61.17
2024-01-08T19:49:31.054Z,61.51
2024-01-08T19:51:58.214Z,61.76
2024-01-08T19:54:27.186Z,61.98
2024-01-08T19:56:55.353Z,62.02
2024-01-08T19:59:24.730Z,62.30
2024-01-08T20:01:52.709Z,62.31
2024-01-08T20:04:22.635Z,62.33
2024-01-08T20:06:52.574Z,62.43
2024-01-08T20:09:22.556Z,62.10
2024-01-08T20:11:51.520Z,59.90
2024-01-08T20:14:19.814Z,59.84
2024-01-08T20:16:49.411Z,58.63
2024-01-08T20:19:17.563Z,58.12
2024-01-08T20:21:46.470Z,58.01
2024-01-08T20:24:16.355Z,58.15
2024-01-08T20:26:46.212Z,58.27
2024-01-08T20:29:14.685Z,58.41
2024-01-08T20:31:42.864Z,58.19
2024-01-08T20:34:12.801Z,58.31
2024-01-08T20:36:41.392Z,58.18
2024-01-08T20:39:12.890Z,57.64
2024-01-08T20:41:41.151Z,57.26
2024-01-08T20:44:09.181Z,56.06
2024-01-08T20:46:37.482Z,56.87
2024-01-08T20:49:05.662Z,56.25
2024-01-08T20:51:34.422Z,56.32
2024-01-08T20:54:03.941Z,56.27
2024-01-08T20:56:32.025Z,56.93
2024-01-08T20:59:01.502Z,56.86
2024-01-08T21:01:29.513Z,56.93
2024-01-08T21:03:57.983Z,56.69
2024-01-08T21:06:26.493Z,56.65
2024-01-08T21:08:54.721Z,56.95
2024-01-08T21:11:23.007Z,57.01
2024-01-08T21:13:53.030Z,57.55
2024-01-08T21:16:21.229Z,57.97
2024-01-08T21:18:50.813Z,58.28
2024-01-08T21:21:18.786Z,58.59
2024-01-08T21:23:49.686Z,58.74
2024-01-08T21:26:18.403Z,58.83
2024-01-08T21:28:46.562Z,59.02
2024-01-08T21:31:15.176Z,58.87
2024-01-08T21:33:43.281Z,59.19
2024-01-08T21:36:14.359Z,59.33
2024-01-08T21:38:41.876Z,59.50
2024-01-08T21:41:11.633Z,59.57
2024-01-08T21:43:39.594Z,59.71
2024-01-08T21:46:07.581Z,59.88
2024-01-08T21:48:35.791Z,60.08
2024-01-08T21:51:04.648Z,60.16
2024-01-08T21:53:32.694Z,60.23
2024-01-08T21:56:00.695Z,60.48
2024-01-08T21:58:28.729Z,60.50
2024-01-08T22:00:56.946Z,60.60
2024-01-08T22:03:25.225Z,60.67
2024-01-08T22:05:53.411Z,60.76
2024-01-08T22:08:23.120Z,60.71
2024-01-08T22:10:50.985Z,60.76
2024-01-08T22:13:19.002Z,61.07
2024-01-08T22:15:49.001Z,61.11
2024-01-08T22:18:17.599Z,59.88
2024-01-08T22:20:46.085Z,60.45
2024-01-08T22:23:14.411Z,61.04
2024-01-08T22:25:42.599Z,60.74
2024-01-08T22:28:10.662Z,59.33
2024-01-08T22:30:41.185Z,58.29
2024-01-08T22:33:09.400Z,58.64
2024-01-08T22:35:37.768Z,58.26
2024-01-08T22:38:07.929Z,58.68
2024-01-08T22:40:37.600Z,59.04
2024-01-08T22:43:05.826Z,59.02
2024-01-08T22:45:34.101Z,59.18
2024-01-08T22:48:21.712Z,58.95
2024-01-08T22:50:50.071Z,58.51
2024-01-08T22:53:20.349Z,58.70
2024-01-08T22:55:50.170Z,58.90
2024-01-08T23:01:14.394Z,58.31
2024-01-08T23:03:46.973Z,58.70
2024-01-08T23:06:14.785Z,59.31
2024-01-08T23:08:43.869Z,59.84
2024-01-08T23:11:11.778Z,60.02
2024-01-08T23:13:39.688Z,60.09
2024-01-08T23:16:07.891Z,59.87
2024-01-08T23:18:35.841Z,60.21
2024-01-08T23:21:04.137Z,60.49
2024-01-08T23:23:33.351Z,60.71
2024-01-08T23:26:03.261Z,60.77
2024-01-08T23:28:31.195Z,58.26
2024-01-08T23:30:59.302Z,59.44
2024-01-08T23:33:27.973Z,59.45
2024-01-08T23:35:56.462Z,59.43
2024-01-08T23:38:26.134Z,59.50
2024-01-08T23:40:53.941Z,58.72
2024-01-08T23:43:21.925Z,58.55
2024-01-08T23:45:49.953Z,56.84
2024-01-08T23:48:17.887Z,56.49
2024-01-08T23:50:46.000Z,56.27
2024-01-08T23:53:14.180Z,56.93
2024-01-08T23:55:42.185Z,56.21
2024-01-08T23:58:10.408Z,56.53
